createdAt,value
2019-05-09T00:00:20.386Z,100380.34
2019-05-09T00:02:50.808Z,100372.25
2019-05-09T00:05:23.287Z,100372.59
2019-05-09T00:07:53.504Z,100366.40
2019-05-09T00:10:38.064Z,100360.47
2019-05-09T00:12:56.137Z,100362.73
2019-05-09T00:15:26.801Z,100358.08
2019-05-09T00:17:59.950Z,100358.19
2019-05-09T00:20:40.199Z,100359.50
2019-05-09T00:23:10.516Z,100359.27
2019-05-09T00:25:43.142Z,100359.73
2019-05-09T00:28:13.650Z,100359.65
2019-05-09T00:31:18.053Z,100350.34
2019-05-09T00:33:54.098Z,100347.40
2019-05-09T00:36:24.355Z,100344.41
2019-05-09T00:38:54.804Z,100339.55
2019-05-09T00:41:25.304Z,100340.97
2019-05-09T00:44:03.390Z,100340.62
2019-05-09T00:46:40.064Z,100344.55
2019-05-09T00:49:17.692Z,100341.27
2019-05-09T00:51:48.103Z,100334.51
2019-05-09T00:54:18.896Z,100334.74
2019-05-09T00:56:49.487Z,100334.30
2019-05-09T00:59:19.858Z,100334.05
2019-05-09T01:01:50.178Z,100334.51
2019-05-09T01:04:20.476Z,100329.97
2019-05-09T01:06:53.827Z,100329.24
2019-05-09T01:09:24.275Z,100325.34
2019-05-09T01:11:54.716Z,100318.22
2019-05-09T01:14:25.132Z,100315.97
2019-05-09T01:16:55.536Z,100317.63
2019-05-09T01:19:26.088Z,100309.77
2019-05-09T01:21:56.422Z,100310.06
2019-05-09T01:24:26.821Z,100310.18
2019-05-09T01:26:57.386Z,100307.62
2019-05-09T01:29:27.731Z,100305.70
2019-05-09T01:32:00.239Z,100299.62
2019-05-09T01:34:33.143Z,100300.20
2019-05-09T01:37:14.114Z,100294.73
2019-05-09T01:39:44.657Z,100294.74
2019-05-09T01:42:15.105Z,100287.67
2019-05-09T01:44:45.487Z,100283.98
2019-05-09T01:47:16.012Z,100277.58
2019-05-09T01:49:46.160Z,100288.17
2019-05-09T01:52:16.618Z,100280.64
2019-05-09T01:54:49.554Z,100285.67
2019-05-09T01:57:19.895Z,100283.41
2019-05-09T01:59:50.551Z,100284.13
2019-05-09T02:02:20.926Z,100284.95
2019-05-09T02:04:53.207Z,100287.91
2019-05-09T02:07:23.802Z,100288.48
2019-05-09T02:09:54.200Z,100290.18
2019-05-09T02:12:24.696Z,100288.52
2019-05-09T02:15:03.966Z,100287.56
2019-05-09T02:18:00.625Z,100292.41
2019-05-09T02:20:26.042Z,100287.19
2019-05-09T02:22:56.493Z,100288.00
2019-05-09T02:25:26.852Z,100286.22
2019-05-09T02:27:57.317Z,100290.03
2019-05-09T02:30:27.968Z,100288.61
2019-05-09T02:32:58.305Z,100294.66
2019-05-09T02:35:33.172Z,100295.65
2019-05-09T02:38:01.114Z,100293.50
2019-05-09T02:40:31.560Z,100286.37
2019-05-09T02:43:02.154Z,100288.88
2019-05-09T02:45:39.020Z,100287.91
2019-05-09T02:48:09.710Z,100287.09
2019-05-09T02:50:40.206Z,100292.09
2019-05-09T02:53:11.676Z,100294.48
2019-05-09T02:55:42.541Z,100291.16
2019-05-09T02:58:14.874Z,100294.16
2019-05-09T03:00:59.730Z,100295.94
2019-05-09T03:03:33.215Z,100296.66
2019-05-09T03:06:03.957Z,100297.59
2019-05-09T03:08:34.482Z,100300.70
2019-05-09T03:11:04.827Z,100303.91
2019-05-09T03:13:35.264Z,100304.40
2019-05-09T03:16:13.234Z,100302.02
2019-05-09T03:18:44.951Z,100307.39
2019-05-09T03:21:24.525Z,100311.66
2019-05-09T03:23:54.947Z,100309.89
2019-05-09T03:26:29.801Z,100316.47
2019-05-09T03:29:10.048Z,100311.43
2019-05-09T03:31:40.606Z,100312.98
2019-05-09T03:34:10.949Z,100316.79
2019-05-09T03:36:41.432Z,100311.41
2019-05-09T03:39:11.863Z,100313.53
2019-05-09T03:41:42.194Z,100314.84
2019-05-09T03:44:12.749Z,100314.09
2019-05-09T03:47:11.412Z,100313.01
2019-05-09T03:49:41.924Z,100314.32
2019-05-09T03:52:12.278Z,100312.43
2019-05-09T03:54:44.848Z,100319.13
2019-05-09T03:57:29.218Z,100315.92
2019-05-09T04:00:00.026Z,100318.10
2019-05-09T04:02:30.292Z,100320.11
2019-05-09T04:05:01.122Z,100319.91
2019-05-09T04:07:31.621Z,100321.79
2019-05-09T04:10:02.573Z,100327.78
2019-05-09T04:12:33.047Z,100320.53
2019-05-09T04:15:03.746Z,100320.80
2019-05-09T04:17:44.016Z,100319.13
2019-05-09T04:20:17.543Z,100316.13
2019-05-09T04:22:49.008Z,100310.55
2019-05-09T04:25:24.454Z,100314.62
2019-05-09T04:27:55.061Z,100311.77
2019-05-09T04:30:27.411Z,100312.69
2019-05-09T04:32:58.185Z,100309.87
2019-05-09T04:35:28.646Z,100304.73
2019-05-09T04:37:59.346Z,100307.86
2019-05-09T04:40:32.051Z,100308.66
2019-05-09T04:43:14.006Z,100303.42
2019-05-09T04:45:42.388Z,100298.70
2019-05-09T04:48:30.180Z,100301.43
2019-05-09T04:51:01.279Z,100295.81
2019-05-09T04:53:32.083Z,100297.02
2019-05-09T04:56:23.375Z,100297.83
2019-05-09T04:58:53.809Z,100289.00
2019-05-09T05:01:57.933Z,100290.41
2019-05-09T05:04:28.774Z,100284.08
2019-05-09T05:06:59.479Z,100288.35
2019-05-09T05:09:29.996Z,100286.31
2019-05-09T05:12:00.273Z,100288.80
2019-05-09T05:14:32.449Z,100295.91
2019-05-09T05:17:08.457Z,100298.27
2019-05-09T05:19:38.069Z,100294.39
2019-05-09T05:22:19.498Z,100294.37
2019-05-09T05:25:01.839Z,100295.04
2019-05-09T05:27:32.534Z,100301.67
2019-05-09T05:30:03.083Z,100297.59
2019-05-09T05:32:42.499Z,100300.81
2019-05-09T05:35:30.833Z,100306.34
2019-05-09T05:38:01.253Z,100312.50
2019-05-09T05:40:33.627Z,100307.94
2019-05-09T05:43:03.688Z,100306.58
2019-05-09T05:45:38.912Z,100304.59
2019-05-09T05:48:17.590Z,100302.55
2019-05-09T05:50:48.745Z,100297.03
2019-05-09T05:53:18.995Z,100300.38
2019-05-09T05:55:52.550Z,100297.50
2019-05-09T05:58:21.126Z,100294.81
2019-05-09T06:00:51.151Z,100298.22
2019-05-09T06:03:21.282Z,100289.19
2019-05-09T06:05:51.886Z,100288.58
2019-05-09T06:08:22.198Z,100287.20
2019-05-09T06:10:52.450Z,100282.23
2019-05-09T06:13:22.638Z,100285.92
2019-05-09T06:15:52.740Z,100285.96
2019-05-09T06:18:22.711Z,100283.19
2019-05-09T06:20:53.037Z,100285.22
2019-05-09T06:23:23.060Z,100285.58
2019-05-09T06:25:53.219Z,100280.79
2019-05-09T06:28:23.914Z,100282.73
2019-05-09T06:30:54.268Z,100279.02
2019-05-09T06:33:24.620Z,100278.26
2019-05-09T06:35:55.044Z,100282.25
2019-05-09T06:38:28.056Z,100274.37
2019-05-09T06:40:58.197Z,100272.38
2019-05-09T06:43:31.555Z,100277.33
2019-05-09T06:46:14.554Z,100272.78
2019-05-09T06:48:45.064Z,100270.50
2019-05-09T06:51:18.916Z,100270.81
2019-05-09T06:53:48.808Z,100269.86
2019-05-09T06:56:20.352Z,100267.86
2019-05-09T06:58:50.763Z,100261.67
2019-05-09T07:01:42.415Z,100265.09
2019-05-09T07:04:23.693Z,100267.49
2019-05-09T07:07:03.853Z,100263.95
2019-05-09T07:09:47.924Z,100259.38
2019-05-09T07:12:21.776Z,100261.83
2019-05-09T07:14:52.523Z,100262.53
2019-05-09T07:17:24.223Z,100255.94
2019-05-09T07:19:55.082Z,100251.54
2019-05-09T07:22:48.181Z,100248.87
2019-05-09T07:25:27.959Z,100248.16
2019-05-09T07:28:00.187Z,100247.92
2019-05-09T07:30:57.226Z,100237.57
2019-05-09T07:33:32.129Z,100239.10
2019-05-09T07:36:03.075Z,100236.67
2019-05-09T07:38:34.382Z,100237.11
2019-05-09T07:41:08.587Z,100239.88
2019-05-09T07:43:38.767Z,100240.99
2019-05-09T07:46:28.962Z,100238.25
2019-05-09T07:49:00.631Z,100240.08
2019-05-09T07:51:32.487Z,100240.92
2019-05-09T07:54:18.224Z,100243.28
2019-05-09T07:56:37.852Z,100232.84
2019-05-09T07:59:09.916Z,100241.17
2019-05-09T08:01:41.231Z,100235.63
2019-05-09T08:04:12.041Z,100237.67
2019-05-09T08:06:42.531Z,100234.84
2019-05-09T08:09:14.652Z,100244.73
2019-05-09T08:11:48.509Z,100242.20
2019-05-09T08:14:19.394Z,100246.62
2019-05-09T08:16:50.058Z,100251.23
2019-05-09T08:19:23.424Z,100249.19
2019-05-09T08:21:54.676Z,100254.92
2019-05-09T08:24:27.721Z,100251.12
2019-05-09T08:26:58.308Z,100253.34
2019-05-09T08:29:29.511Z,100253.37
2019-05-09T08:32:00.286Z,100256.20
2019-05-09T08:34:31.172Z,100258.52
2019-05-09T08:37:01.917Z,100257.81
2019-05-09T08:39:32.903Z,100255.92
2019-05-09T08:42:03.670Z,100258.69
2019-05-09T08:44:34.381Z,100257.08
2019-05-09T08:47:05.090Z,100254.70
2019-05-09T08:49:49.639Z,100247.86
2019-05-09T08:52:20.390Z,100247.02
2019-05-09T08:54:54.449Z,100249.50
2019-05-09T08:57:25.105Z,100245.91
2019-05-09T08:59:55.894Z,100239.83
2019-05-09T09:02:28.296Z,100240.37
2019-05-09T09:04:59.174Z,100235.28
2019-05-09T09:07:29.992Z,100238.40
2019-05-09T09:10:00.614Z,100234.44
2019-05-09T09:12:34.506Z,100231.78
2019-05-09T09:15:03.913Z,100231.49
2019-05-09T09:17:34.729Z,100232.47
2019-05-09T09:20:07.733Z,100232.78
2019-05-09T09:22:40.456Z,100237.08
2019-05-09T09:25:11.028Z,100235.47
2019-05-09T09:27:41.920Z,100230.86
2019-05-09T09:30:20.152Z,100222.84
2019-05-09T09:32:47.745Z,100224.64
2019-05-09T09:35:18.635Z,100222.25
2019-05-09T09:37:52.297Z,100218.77
2019-05-09T09:40:22.732Z,100211.20
2019-05-09T09:42:53.038Z,100213.47
2019-05-09T09:45:23.417Z,100212.77
2019-05-09T09:47:53.821Z,100203.06
2019-05-09T09:50:24.141Z,100203.02
2019-05-09T09:52:54.431Z,100200.95
2019-05-09T09:55:24.779Z,100196.55
2019-05-09T09:57:57.538Z,100201.04
2019-05-09T10:00:51.771Z,100192.03
2019-05-09T10:03:23.268Z,100190.09
2019-05-09T10:05:54.985Z,100200.71
2019-05-09T10:08:25.775Z,100197.03
2019-05-09T10:10:58.963Z,100201.88
2019-05-09T10:13:29.900Z,100189.39
2019-05-09T10:16:24.555Z,100190.69
2019-05-09T10:18:52.942Z,100190.89
2019-05-09T10:21:38.210Z,100188.70
2019-05-09T10:24:08.956Z,100189.70
2019-05-09T10:26:44.335Z,100186.59
2019-05-09T10:29:14.969Z,100183.39
2019-05-09T10:31:45.560Z,100183.66
2019-05-09T10:34:17.722Z,100183.19
2019-05-09T10:36:48.253Z,100180.20
2019-05-09T10:39:18.799Z,100179.94
2019-05-09T10:41:49.316Z,100175.02
2019-05-09T10:44:29.334Z,100174.30
2019-05-09T10:47:04.419Z,100173.08
2019-05-09T10:49:35.260Z,100165.31
2019-05-09T10:52:08.637Z,100162.72
2019-05-09T10:54:38.760Z,100162.45
2019-05-09T10:57:09.140Z,100153.87
2019-05-09T10:59:40.155Z,100157.26
2019-05-09T11:02:10.715Z,100156.63
2019-05-09T11:04:44.186Z,100159.65
2019-05-09T11:07:13.132Z,100156.77
2019-05-09T11:09:43.603Z,100159.25
2019-05-09T11:12:13.944Z,100161.89
2019-05-09T11:14:44.411Z,100162.52
2019-05-09T11:17:19.239Z,100158.72
2019-05-09T11:19:48.198Z,100161.73
2019-05-09T11:22:18.946Z,100155.91
2019-05-09T11:24:51.068Z,100152.66
2019-05-09T11:27:21.637Z,100150.49
2019-05-09T11:29:52.413Z,100152.65
2019-05-09T11:32:23.219Z,100145.23
2019-05-09T11:34:54.041Z,100146.77
2019-05-09T11:37:24.921Z,100136.64
2019-05-09T11:39:57.854Z,100135.45
2019-05-09T11:42:28.833Z,100134.48
2019-05-09T11:44:59.428Z,100134.20
2019-05-09T11:47:39.740Z,100126.31
2019-05-09T11:50:04.419Z,100129.29
2019-05-09T11:52:35.006Z,100126.59
2019-05-09T11:55:07.888Z,100124.63
2019-05-09T11:57:38.683Z,100121.39
2019-05-09T12:00:10.400Z,100128.56
2019-05-09T12:02:40.897Z,100126.03
2019-05-09T12:05:11.934Z,100121.86
2019-05-09T12:07:42.644Z,100113.59
2019-05-09T12:10:13.544Z,100108.90
2019-05-09T12:12:44.105Z,100106.31
2019-05-09T12:15:15.252Z,100108.81
2019-05-09T12:17:56.487Z,100110.89
2019-05-09T12:20:20.157Z,100108.19
2019-05-09T12:22:50.807Z,100107.92
2019-05-09T12:25:22.950Z,100104.36
2019-05-09T12:28:01.088Z,100096.38
2019-05-09T12:30:31.783Z,100097.47
2019-05-09T12:33:02.549Z,100088.38
2019-05-09T12:35:32.900Z,100094.11
2019-05-09T12:38:05.028Z,100088.39
2019-05-09T12:40:35.766Z,100079.22
2019-05-09T12:43:08.908Z,100082.19
2019-05-09T12:45:38.972Z,100081.64
2019-05-09T12:48:15.064Z,100077.21
2019-05-09T12:50:42.069Z,100077.42
2019-05-09T12:53:12.653Z,100073.22
2019-05-09T12:55:43.311Z,100071.16
2019-05-09T12:58:29.247Z,100069.91
2019-05-09T13:01:00.624Z,100063.49
2019-05-09T13:03:31.326Z,100058.16
2019-05-09T13:06:02.110Z,100056.24
2019-05-09T13:08:32.759Z,100050.44
2019-05-09T13:11:03.212Z,100046.98
2019-05-09T13:13:33.993Z,100047.64
2019-05-09T13:16:39.058Z,100044.32
2019-05-09T13:19:11.243Z,100046.00
2019-05-09T13:21:42.790Z,100044.11
2019-05-09T13:24:13.467Z,100044.75
2019-05-09T13:26:47.989Z,100037.52
2019-05-09T13:29:18.774Z,100034.84
2019-05-09T13:31:49.183Z,100032.09
2019-05-09T13:34:19.832Z,100025.98
2019-05-09T13:36:50.659Z,100029.05
2019-05-09T13:39:21.147Z,100022.30
2019-05-09T13:41:51.906Z,100019.69
2019-05-09T13:44:22.526Z,100020.72
2019-05-09T13:46:53.161Z,100019.98
2019-05-09T13:49:24.098Z,100020.07
2019-05-09T13:52:01.244Z,100014.13
2019-05-09T13:54:28.499Z,100017.54
2019-05-09T13:57:01.508Z,100011.97
2019-05-09T13:59:31.307Z,100002.73
2019-05-09T14:02:02.163Z,99993.70
2019-05-09T14:04:32.437Z,99993.55
2019-05-09T14:07:02.834Z,99986.27
2019-05-09T14:09:33.183Z,99984.41
2019-05-09T14:12:03.534Z,99992.05
2019-05-09T14:14:33.980Z,99986.46
2019-05-09T14:17:04.376Z,99979.88
2019-05-09T14:19:45.134Z,99980.83
2019-05-09T14:22:08.280Z,99982.15
2019-05-09T14:24:38.976Z,99982.58
2019-05-09T14:27:09.534Z,99986.27
2019-05-09T14:29:41.238Z,99978.89
2019-05-09T14:32:12.112Z,99979.43
2019-05-09T14:34:42.887Z,99974.02
2019-05-09T14:37:13.678Z,99969.29
2019-05-09T14:39:55.795Z,99965.77
2019-05-09T14:42:18.815Z,99961.63
2019-05-09T14:44:49.624Z,99953.38
2019-05-09T14:47:20.205Z,99955.01
2019-05-09T14:49:51.197Z,99960.34
2019-05-09T14:52:22.074Z,99948.88
2019-05-09T14:54:52.836Z,99951.45
2019-05-09T14:57:23.721Z,99947.44
2019-05-09T14:59:58.439Z,99946.48
2019-05-09T15:02:29.398Z,99946.86
2019-05-09T15:05:01.007Z,99943.30
2019-05-09T15:07:31.728Z,99939.70
2019-05-09T15:10:03.447Z,99940.52
2019-05-09T15:12:34.178Z,99933.53
2019-05-09T15:15:07.491Z,99927.91
2019-05-09T15:17:37.585Z,99925.27
2019-05-09T15:20:09.099Z,99925.97
2019-05-09T15:22:39.978Z,99923.05
2019-05-09T15:25:10.973Z,99924.72
2019-05-09T15:27:47.557Z,99926.70
2019-05-09T15:30:18.815Z,99927.69
2019-05-09T15:32:52.027Z,99923.52
2019-05-09T15:35:23.086Z,99922.13
2019-05-09T15:37:55.150Z,99918.81
2019-05-09T15:40:28.188Z,99919.61
2019-05-09T15:43:00.444Z,99919.56
2019-05-09T15:45:34.856Z,99914.05
2019-05-09T15:48:07.686Z,99913.34
2019-05-09T15:50:38.204Z,99910.39
2019-05-09T15:53:09.024Z,99906.86
2019-05-09T15:55:43.826Z,99907.91
2019-05-09T15:58:18.788Z,99902.29
2019-05-09T16:00:48.603Z,99909.07
2019-05-09T16:03:19.337Z,99896.69
2019-05-09T16:05:51.818Z,99897.02
2019-05-09T16:08:23.595Z,99892.94
2019-05-09T16:10:54.165Z,99882.23
2019-05-09T16:13:28.563Z,99886.36
2019-05-09T16:15:58.917Z,99883.78
2019-05-09T16:18:29.604Z,99881.43
2019-05-09T16:21:00.035Z,99875.38
2019-05-09T16:23:30.417Z,99874.44
2019-05-09T16:26:00.856Z,99867.36
2019-05-09T16:28:31.443Z,99870.19
2019-05-09T16:31:03.002Z,99868.03
2019-05-09T16:33:33.589Z,99865.07
2019-05-09T16:36:04.113Z,99868.25
2019-05-09T16:38:43.398Z,99871.25
2019-05-09T16:41:07.706Z,99866.94
2019-05-09T16:43:39.302Z,99866.38
2019-05-09T16:46:10.332Z,99856.05
2019-05-09T16:48:40.750Z,99853.67
2019-05-09T16:51:11.346Z,99854.47
2019-05-09T16:53:41.684Z,99853.70
2019-05-09T16:56:12.103Z,99846.26
2019-05-09T16:58:42.509Z,99849.20
2019-05-09T17:01:14.855Z,99847.25
2019-05-09T17:03:45.839Z,99849.50
2019-05-09T17:06:18.418Z,99856.43
2019-05-09T17:08:48.979Z,99852.40
2019-05-09T17:11:19.528Z,99856.61
2019-05-09T17:13:50.886Z,99853.38
2019-05-09T17:16:21.625Z,99855.90
2019-05-09T17:18:52.013Z,99853.81
2019-05-09T17:21:44.224Z,99858.63
2019-05-09T17:24:17.275Z,99856.47
2019-05-09T17:26:48.831Z,99859.40
2019-05-09T17:29:19.537Z,99853.98
2019-05-09T17:31:49.747Z,99858.19
2019-05-09T17:34:19.901Z,99851.80
2019-05-09T17:36:50.180Z,99853.38
2019-05-09T17:39:20.249Z,99847.66
2019-05-09T17:41:50.427Z,99847.94
2019-05-09T17:44:21.103Z,99840.27
2019-05-09T17:46:51.339Z,99839.27
2019-05-09T17:49:22.726Z,99837.48
2019-05-09T17:51:53.308Z,99837.81
2019-05-09T17:54:23.564Z,99836.66
2019-05-09T17:56:53.860Z,99834.27
2019-05-09T17:59:24.086Z,99833.70
2019-05-09T18:01:54.316Z,99837.91
2019-05-09T18:04:25.180Z,99835.36
2019-05-09T18:06:58.217Z,99833.98
2019-05-09T18:09:28.673Z,99831.22
2019-05-09T18:11:59.727Z,99830.38
2019-05-09T18:14:30.107Z,99826.31
2019-05-09T18:17:00.555Z,99830.67
2019-05-09T18:19:30.884Z,99829.84
2019-05-09T18:22:01.386Z,99826.27
2019-05-09T18:24:32.074Z,99827.58
2019-05-09T18:27:02.755Z,99828.95
2019-05-09T18:29:33.410Z,99830.70
2019-05-09T18:32:24.145Z,99831.27
2019-05-09T18:35:07.979Z,99833.28
2019-05-09T18:37:37.887Z,99828.88
2019-05-09T18:40:08.530Z,99827.98
2019-05-09T18:42:39.019Z,99829.63
2019-05-09T18:45:10.469Z,99825.09
2019-05-09T18:47:40.964Z,99825.28
2019-05-09T18:50:11.716Z,99825.66
2019-05-09T18:52:42.724Z,99819.84
2019-05-09T18:55:13.889Z,99820.72
2019-05-09T18:57:44.323Z,99814.07
2019-05-09T19:00:15.491Z,99814.44
2019-05-09T19:02:46.234Z,99821.20
2019-05-09T19:05:16.877Z,99815.66
2019-05-09T19:07:47.385Z,99818.58
2019-05-09T19:10:18.045Z,99811.55
2019-05-09T19:12:48.550Z,99815.81
2019-05-09T19:15:32.474Z,99811.36
2019-05-09T19:18:27.870Z,99818.59
2019-05-09T19:21:12.513Z,99808.21
2019-05-09T19:23:43.089Z,99812.30
2019-05-09T19:26:31.515Z,99812.38
2019-05-09T19:29:01.973Z,99791.58
2019-05-09T19:31:32.378Z,99803.95
2019-05-09T19:34:03.012Z,99799.31
2019-05-09T19:36:33.786Z,99800.71
2019-05-09T19:39:06.149Z,99793.31
2019-05-09T19:41:36.604Z,99791.30
2019-05-09T19:44:07.078Z,99795.33
2019-05-09T19:46:37.708Z,99791.17
2019-05-09T19:49:08.747Z,99786.43
2019-05-09T19:51:39.713Z,99778.88
2019-05-09T19:54:11.249Z,99789.39
2019-05-09T19:56:42.150Z,99789.16
2019-05-09T19:59:13.080Z,99787.74
2019-05-09T20:01:43.577Z,99783.16
2019-05-09T20:04:14.922Z,99781.85
2019-05-09T20:06:45.330Z,99777.61
2019-05-09T20:09:41.051Z,99784.31
2019-05-09T20:12:36.869Z,99772.87
2019-05-09T20:15:07.884Z,99773.81
2019-05-09T20:17:38.709Z,99768.02
2019-05-09T20:20:09.413Z,99761.73
2019-05-09T20:22:51.899Z,99757.87
2019-05-09T20:25:12.693Z,99760.14
2019-05-09T20:27:43.136Z,99763.01
2019-05-09T20:30:14.140Z,99757.05
2019-05-09T20:32:44.593Z,99747.58
2019-05-09T20:35:16.034Z,99749.30
2019-05-09T20:37:46.862Z,99748.58
2019-05-09T20:40:17.333Z,99743.22
2019-05-09T20:42:47.503Z,99747.91
2019-05-09T20:45:18.042Z,99740.53
2019-05-09T20:47:48.640Z,99740.81
2019-05-09T20:50:19.046Z,99736.17
2019-05-09T20:52:49.554Z,99739.36
2019-05-09T20:55:19.847Z,99735.90
2019-05-09T20:57:52.107Z,99736.47
2019-05-09T21:00:22.440Z,99735.77
2019-05-09T21:02:52.734Z,99730.62
2019-05-09T21:05:22.922Z,99732.95
2019-05-09T21:07:53.234Z,99730.66
2019-05-09T21:10:23.566Z,99739.84
2019-05-09T21:12:53.813Z,99729.15
2019-05-09T21:15:24.433Z,99727.89
2019-05-09T21:17:54.837Z,99730.85
2019-05-09T21:20:25.165Z,99732.72
2019-05-09T21:22:55.559Z,99727.74
2019-05-09T21:25:25.775Z,99727.41
2019-05-09T21:27:56.019Z,99725.77
2019-05-09T21:30:26.529Z,99722.16
2019-05-09T21:32:56.937Z,99716.97
2019-05-09T21:35:26.876Z,99721.69
2019-05-09T21:37:57.028Z,99715.19
2019-05-09T21:40:27.200Z,99717.39
2019-05-09T21:42:57.442Z,99714.62
2019-05-09T21:45:27.677Z,99714.06
2019-05-09T21:47:58.342Z,99714.77
2019-05-09T21:50:28.564Z,99711.58
2019-05-09T21:52:59.738Z,99714.06
2019-05-09T21:55:30.206Z,99709.24
2019-05-09T21:58:00.620Z,99707.80
2019-05-09T22:00:34.660Z,99703.25
2019-05-09T22:03:06.554Z,99703.39
2019-05-09T22:05:37.901Z,99702.47
2019-05-09T22:08:08.375Z,99706.16
2019-05-09T22:10:38.808Z,99697.33
2019-05-09T22:13:10.089Z,99702.38
2019-05-09T22:15:40.693Z,99697.41
2019-05-09T22:18:11.015Z,99699.34
2019-05-09T22:20:41.437Z,99692.92
2019-05-09T22:23:11.829Z,99690.72
2019-05-09T22:25:42.226Z,99693.06
2019-05-09T22:28:12.599Z,99693.34
2019-05-09T22:30:44.269Z,99696.39
2019-05-09T22:33:15.073Z,99690.16
2019-05-09T22:35:45.628Z,99690.91
2019-05-09T22:38:16.084Z,99683.61
2019-05-09T22:40:46.939Z,99691.72
2019-05-09T22:43:17.425Z,99684.20
2019-05-09T22:45:47.800Z,99677.93
2019-05-09T22:48:18.177Z,99685.66
2019-05-09T22:50:49.280Z,99682.38
2019-05-09T22:53:19.819Z,99677.31
2019-05-09T22:55:50.153Z,99675.26
2019-05-09T22:58:20.681Z,99675.73
2019-05-09T23:00:51.103Z,99674.42
2019-05-09T23:03:21.507Z,99675.26
2019-05-09T23:05:52.100Z,99678.50
2019-05-09T23:08:22.673Z,99678.44
2019-05-09T23:10:53.607Z,99677.79
2019-05-09T23:13:24.099Z,99677.19
2019-05-09T23:15:54.667Z,99676.99
2019-05-09T23:18:25.007Z,99669.59
2019-05-09T23:20:57.762Z,99679.66
2019-05-09T23:23:38.379Z,99686.70
2019-05-09T23:26:09.030Z,99687.62
2019-05-09T23:28:39.922Z,99679.11
2019-05-09T23:31:14.432Z,99682.52
2019-05-09T23:33:45.114Z,99679.33
2019-05-09T23:36:15.492Z,99680.94
2019-05-09T23:39:03.417Z,99676.89
2019-05-09T23:41:33.790Z,99686.38
2019-05-09T23:44:04.270Z,99690.97
2019-05-09T23:46:34.900Z,99693.28
2019-05-09T23:49:05.603Z,99689.88
2019-05-09T23:51:49.288Z,99684.16
2019-05-09T23:54:47.363Z,99688.98
2019-05-09T23:57:32.868Z,99684.16
